Time;durP1;ratioP1;P1;durP2;ratioP2;P2;SDS_P1;SDS_P2;PMS_P1;PMS_P2;Temp;Humidity;BMP_temperature;BMP_pressure;BME280_temperature;BME280_humidity;BME280_pressure;Samples;Min_cycle;Max_cycle;Signal;HPM_P1;HPM_P2
2022/09/26 00:01:20;;;;;;;10.23;7.45;;;;;;;9.61;100.00;100925.84;5341603;27;20062;-79
2022/09/26 00:03:57;;;;;;;8.55;6.43;;;;;;;9.68;100.00;100920.84;5336210;27;20475;-79
2022/09/26 00:06:29;;;;;;;12.15;6.45;;;;;;;9.65;100.00;100926.41;5340193;27;20032;-79
2022/09/26 00:09:00;;;;;;;9.27;6.97;;;;;;;9.61;100.00;100911.69;5340909;27;20362;-79
2022/09/26 00:11:33;;;;;;;10.45;6.68;;;;;;;9.71;100.00;100917.91;5342611;27;20451;-79
2022/09/26 00:14:10;;;;;;;8.02;6.38;;;;;;;9.58;100.00;100896.81;5340855;27;20031;-79
2022/09/26 00:16:42;;;;;;;9.05;6.53;;;;;;;9.76;100.00;100906.81;5343030;27;20024;-79
2022/09/26 00:19:13;;;;;;;9.63;6.90;;;;;;;9.74;100.00;100909.63;5342520;27;20473;-80
2022/09/26 00:21:45;;;;;;;12.77;6.63;;;;;;;9.75;100.00;100894.50;5344705;27;20436;-79
2022/09/26 00:24:17;;;;;;;8.02;6.30;;;;;;;9.72;100.00;100897.44;5340251;27;20473;-79
2022/09/26 00:26:48;;;;;;;8.73;6.75;;;;;;;9.72;100.00;100881.44;5343430;27;20015;-79
2022/09/26 00:29:20;;;;;;;8.13;6.35;;;;;;;9.76;100.00;100874.88;5342569;27;20497;-79
2022/09/26 00:31:52;;;;;;;9.57;6.00;;;;;;;9.74;100.00;100869.66;5321361;27;20039;-79
2022/09/26 00:34:23;;;;;;;8.57;6.90;;;;;;;9.62;100.00;100850.31;5334822;27;20054;-79
2022/09/26 00:36:55;;;;;;;11.57;6.88;;;;;;;9.74;100.00;100866.16;5339892;27;20099;-79
2022/09/26 00:39:29;;;;;;;8.15;7.22;;;;;;;9.84;100.00;100864.38;5322220;27;20040;-78
2022/09/26 00:42:01;;;;;;;11.15;7.60;;;;;;;9.80;100.00;100862.94;5318847;27;20474;-78
2022/09/26 00:44:43;;;;;;;9.70;7.38;;;;;;;9.79;100.00;100850.63;5340188;27;20034;-79
2022/09/26 00:47:33;;;;;;;9.13;7.00;;;;;;;9.94;100.00;100865.25;5341360;27;20032;-79
2022/09/26 00:50:23;;;;;;;7.85;7.05;;;;;;;9.96;100.00;100855.28;5339676;27;20032;-78
2022/09/26 00:53:13;;;;;;;9.43;6.60;;;;;;;9.98;100.00;100849.81;5338974;27;20032;-79
2022/09/26 00:55:57;;;;;;;9.63;6.68;;;;;;;9.97;100.00;100834.78;5321043;27;20027;-79
2022/09/26 00:58:39;;;;;;;8.30;6.60;;;;;;;10.07;100.00;100824.16;5320469;27;20035;-79
2022/09/26 01:01:12;;;;;;;10.07;5.90;;;;;;;10.18;100.00;100837.34;5338755;27;20031;-79
2022/09/26 01:03:48;;;;;;;10.05;6.50;;;;;;;10.08;100.00;100812.50;5341327;27;20027;-79
2022/09/26 01:06:20;;;;;;;7.60;5.35;;;;;;;10.12;100.00;100806.75;5342855;27;20096;-79
2022/09/26 01:08:59;;;;;;;5.80;5.20;;;;;;;10.15;100.00;100797.63;5346031;27;20016;-79
2022/09/26 01:11:32;;;;;;;8.98;5.35;;;;;;;10.18;100.00;100794.69;5339011;27;20030;-79
2022/09/26 01:14:06;;;;;;;9.32;5.82;;;;;;;10.24;100.00;100796.81;5343413;27;20435;-79
2022/09/26 01:16:39;;;;;;;8.73;4.70;;;;;;;10.30;100.00;100798.06;5341343;27;20034;-79
2022/09/26 01:19:23;;;;;;;6.65;5.32;;;;;;;10.39;100.00;100791.91;5342727;27;20035;-79
2022/09/26 01:22:01;;;;;;;7.60;4.90;;;;;;;10.46;100.00;100793.00;5340629;27;20032;-79
2022/09/26 01:25:09;;;;;;;9.43;4.97;;;;;;;10.46;100.00;100785.00;5325560;27;20165;-79
2022/09/26 01:28:08;;;;;;;7.47;4.60;;;;;;;10.46;100.00;100777.00;5339387;27;20539;-79
2022/09/26 01:30:51;;;;;;;7.05;4.35;;;;;;;10.46;100.00;100774.34;5345191;27;20023;-79
2022/09/26 01:33:44;;;;;;;5.60;4.50;;;;;;;10.40;100.00;100758.94;5337687;27;20721;-79
2022/09/26 01:36:48;;;;;;;4.95;4.30;;;;;;;10.35;100.00;100737.19;5339222;27;20369;-79
2022/09/26 01:39:27;;;;;;;7.47;4.15;;;;;;;10.45;100.00;100740.69;5340046;27;20085;-79
2022/09/26 01:42:04;;;;;;;7.10;4.32;;;;;;;10.51;100.00;100750.75;5340281;27;20034;-79
2022/09/26 01:44:49;;;;;;;6.03;3.80;;;;;;;10.45;100.00;100723.81;5339568;27;20027;-78
2022/09/26 01:47:27;;;;;;;9.07;4.10;;;;;;;10.51;100.00;100739.25;5341170;27;20092;-78
2022/09/26 01:49:58;;;;;;;6.32;4.00;;;;;;;10.47;100.00;100728.03;5343216;27;20149;-79
2022/09/26 01:52:36;;;;;;;6.95;4.05;;;;;;;10.42;100.00;100724.97;5324452;27;20143;-78
2022/09/26 01:55:28;;;;;;;8.57;3.85;;;;;;;10.45;100.00;100713.16;5338784;27;20051;-78
2022/09/26 01:58:11;;;;;;;6.78;4.10;;;;;;;10.38;100.00;100692.41;5341930;27;20028;-78
2022/09/26 02:00:45;;;;;;;8.85;3.50;;;;;;;10.31;100.00;100690.41;5323561;27;20036;-78
2022/09/26 02:03:22;;;;;;;7.63;3.42;;;;;;;10.41;100.00;100685.94;5321028;27;20028;-78
2022/09/26 02:05:58;;;;;;;7.95;3.67;;;;;;;10.38;100.00;100692.41;5336589;27;20145;-78
2022/09/26 02:08:38;;;;;;;7.45;3.38;;;;;;;10.36;100.00;100689.06;5338486;27;20042;-78
2022/09/26 02:11:14;;;;;;;11.10;3.55;;;;;;;10.31;100.00;100674.41;5339555;27;20027;-78
2022/09/26 02:13:54;;;;;;;7.95;3.35;;;;;;;10.30;100.00;100665.59;5341188;27;20544;-79
2022/09/26 02:16:39;;;;;;;5.15;3.00;;;;;;;10.27;100.00;100665.88;5325095;27;20466;-78
2022/09/26 02:19:28;;;;;;;8.40;3.58;;;;;;;10.31;100.00;100664.66;5344209;27;20039;-79
2022/09/26 02:22:00;;;;;;;8.43;3.30;;;;;;;10.19;100.00;100649.78;5342655;27;20159;-79
2022/09/26 02:24:31;;;;;;;4.05;3.00;;;;;;;10.28;100.00;100650.75;5345187;27;20035;-78
2022/09/26 02:27:03;;;;;;;9.77;4.10;;;;;;;10.22;100.00;100630.84;5325306;27;20062;-79
2022/09/26 02:29:35;;;;;;;6.65;3.20;;;;;;;10.36;100.00;100648.19;5344484;27;20355;-79
2022/09/26 02:32:14;;;;;;;5.68;3.50;;;;;;;10.32;100.00;100642.31;5342580;27;20032;-79
2022/09/26 02:34:48;;;;;;;10.88;3.60;;;;;;;10.20;100.00;100619.47;5333056;27;20030;-79
2022/09/26 02:37:20;;;;;;;9.15;3.15;;;;;;;10.25;100.00;100616.38;5344131;27;20755;-79
2022/09/26 02:39:52;;;;;;;7.63;2.97;;;;;;;10.28;100.00;100621.41;5342530;27;21387;-79
2022/09/26 02:42:35;;;;;;;9.30;3.15;;;;;;;10.38;100.00;100632.91;5340167;27;20443;-79
2022/09/26 02:45:14;;;;;;;8.93;3.30;;;;;;;10.31;100.00;100630.00;5343766;27;20028;-79
2022/09/26 02:48:13;;;;;;;5.57;3.03;;;;;;;10.35;100.00;100631.38;5343585;27;20127;-78
2022/09/26 02:51:06;;;;;;;6.90;2.72;;;;;;;10.34;100.00;100624.38;5337687;27;20077;-79
2022/09/26 02:53:48;;;;;;;5.32;3.00;;;;;;;10.33;100.00;100628.00;5341606;27;20491;-79
2022/09/26 02:56:30;;;;;;;7.93;3.55;;;;;;;10.14;100.00;100580.91;5321221;27;20042;-78
2022/09/26 02:59:06;;;;;;;5.65;3.25;;;;;;;10.28;100.00;100608.09;5340189;27;20032;-78
2022/09/26 03:01:46;;;;;;;7.88;2.90;;;;;;;10.23;100.00;100596.03;5343756;27;20442;-78
2022/09/26 03:04:30;;;;;;;8.82;2.65;;;;;;;10.25;100.00;100584.38;5343261;27;20039;-78
2022/09/26 03:07:06;;;;;;;8.25;3.00;;;;;;;10.18;100.00;100579.63;5342563;27;20102;-79
2022/09/26 03:09:40;;;;;;;7.00;2.70;;;;;;;10.34;100.00;100588.84;5343666;27;20028;-78
2022/09/26 03:12:12;;;;;;;6.57;2.80;;;;;;;10.25;100.00;100574.56;5339300;27;20028;-78
2022/09/26 03:14:46;;;;;;;6.72;2.78;;;;;;;10.33;100.00;100577.38;5343663;27;20469;-79
2022/09/26 03:17:18;;;;;;;5.32;2.42;;;;;;;10.28;100.00;100576.09;5342668;27;20476;-79
2022/09/26 03:19:58;;;;;;;10.55;2.47;;;;;;;10.29;100.00;100561.75;5343359;27;20036;-79
2022/09/26 03:22:29;;;;;;;4.68;2.50;;;;;;;10.32;100.00;100569.50;5343835;27;20448;-79
2022/09/26 03:25:02;;;;;;;7.13;2.90;;;;;;;10.29;100.00;100559.97;5342098;27;20081;-78
2022/09/26 03:27:36;;;;;;;7.18;2.58;;;;;;;10.20;100.00;100558.16;5342203;27;20028;-78
2022/09/26 03:30:10;;;;;;;6.18;2.47;;;;;;;10.32;100.00;100564.19;5344850;27;20122;-78
2022/09/26 03:32:41;;;;;;;4.10;2.45;;;;;;;10.28;100.00;100555.59;5340265;27;20024;-79
2022/09/26 03:35:13;;;;;;;4.35;2.35;;;;;;;10.28;100.00;100542.28;5343959;27;20031;-80
2022/09/26 03:37:44;;;;;;;5.10;2.47;;;;;;;10.32;100.00;100548.19;5341837;27;20102;-79
2022/09/26 03:40:15;;;;;;;5.07;2.75;;;;;;;10.36;100.00;100534.41;5342351;27;20039;-79
2022/09/26 03:42:47;;;;;;;5.47;2.10;;;;;;;10.25;100.00;100518.56;5343956;27;20023;-78
2022/09/26 03:45:19;;;;;;;3.63;2.30;;;;;;;10.23;100.00;100509.88;5341514;27;20115;-78
2022/09/26 03:47:56;;;;;;;4.97;2.58;;;;;;;10.17;100.00;100515.84;5341553;27;20562;-80
2022/09/26 03:50:27;;;;;;;5.28;2.58;;;;;;;10.05;100.00;100509.84;5344214;27;20381;-80
2022/09/26 03:53:01;;;;;;;12.75;2.65;;;;;;;10.07;100.00;100515.84;5341927;27;20051;-80
2022/09/26 03:55:33;;;;;;;5.47;2.75;;;;;;;10.03;100.00;100511.81;5341274;27;20084;-80
2022/09/26 03:58:04;;;;;;;6.55;2.70;;;;;;;9.90;100.00;100493.47;5342313;27;20043;-80
2022/09/26 04:00:38;;;;;;;6.22;2.72;;;;;;;9.97;100.00;100491.91;5334714;27;20032;-80
2022/09/26 04:03:09;;;;;;;8.18;3.00;;;;;;;10.02;100.00;100502.13;5340593;27;20036;-80
2022/09/26 04:05:42;;;;;;;15.73;3.08;;;;;;;9.94;100.00;100494.03;5340687;27;20477;-80
2022/09/26 04:08:13;;;;;;;4.80;2.53;;;;;;;9.81;100.00;100494.38;5341903;27;20032;-80
2022/09/26 04:10:45;;;;;;;4.55;2.90;;;;;;;9.79;100.00;100499.84;5341491;27;20515;-80
2022/09/26 04:13:16;;;;;;;8.18;3.45;;;;;;;9.79;100.00;100485.69;5342799;27;20157;-80
2022/09/26 04:15:54;;;;;;;6.18;3.15;;;;;;;9.79;100.00;100483.03;5338054;27;20362;-80
2022/09/26 04:18:27;;;;;;;4.82;2.88;;;;;;;9.81;100.00;100459.75;5340400;27;20019;-80
2022/09/26 04:21:01;;;;;;;7.15;2.90;;;;;;;9.84;100.00;100460.28;5344820;27;20046;-80
2022/09/26 04:23:35;;;;;;;6.97;2.72;;;;;;;9.81;100.00;100446.44;5324546;27;21036;-79
2022/09/26 04:26:17;;;;;;;9.02;2.95;;;;;;;9.80;100.00;100439.41;5341434;27;20428;-79
2022/09/26 04:28:50;;;;;;;7.28;3.20;;;;;;;9.80;100.00;100434.94;5341789;27;20957;-79
2022/09/26 04:31:26;;;;;;;7.43;3.28;;;;;;;9.90;100.00;100442.03;5340080;27;20024;-79
2022/09/26 04:33:57;;;;;;;7.80;3.20;;;;;;;9.92;100.00;100443.59;5340134;27;20027;-80
2022/09/26 04:36:29;;;;;;;6.22;2.97;;;;;;;9.94;100.00;100441.59;5338585;27;20031;-80
2022/09/26 04:39:01;;;;;;;7.72;3.15;;;;;;;9.93;100.00;100433.75;5341409;27;20442;-79
2022/09/26 04:41:32;;;;;;;6.97;2.72;;;;;;;9.84;100.00;100412.34;5338301;27;20028;-79
2022/09/26 04:44:04;;;;;;;6.18;2.40;;;;;;;10.00;100.00;100417.00;5339647;27;20571;-80
2022/09/26 04:46:36;;;;;;;3.63;2.45;;;;;;;9.97;100.00;100397.81;5323949;27;20162;-80
2022/09/26 04:49:07;;;;;;;7.68;2.72;;;;;;;9.95;100.00;100394.47;5341841;27;20031;-79
2022/09/26 04:51:39;;;;;;;3.88;2.47;;;;;;;9.97;100.00;100379.19;5341731;27;20481;-79
2022/09/26 04:54:10;;;;;;;7.80;2.70;;;;;;;9.93;100.00;100383.97;5339219;27;20024;-79
2022/09/26 04:56:42;;;;;;;8.50;2.95;;;;;;;9.81;100.00;100371.84;5336166;27;20027;-79
2022/09/26 04:59:13;;;;;;;7.30;3.05;;;;;;;9.78;100.00;100373.00;5340219;27;20155;-80
2022/09/26 05:01:45;;;;;;;3.67;2.47;;;;;;;9.67;100.00;100361.69;5335350;27;20020;-80
2022/09/26 05:04:16;;;;;;;6.15;2.67;;;;;;;9.59;100.00;100365.06;5339350;27;20678;-80
2022/09/26 05:06:48;;;;;;;6.63;3.47;;;;;;;9.61;100.00;100358.63;5320189;27;20110;-80
2022/09/26 05:09:20;;;;;;;8.55;3.20;;;;;;;9.62;100.00;100348.81;5336300;27;20034;-80
2022/09/26 05:11:52;;;;;;;5.22;3.00;;;;;;;9.68;100.00;100356.22;5339215;27;20489;-80
2022/09/26 05:14:24;;;;;;;11.50;3.72;;;;;;;9.57;100.00;100349.28;5332899;27;20108;-80
2022/09/26 05:16:55;;;;;;;10.45;3.67;;;;;;;9.45;100.00;100331.81;5341485;27;20035;-80
2022/09/26 05:19:27;;;;;;;8.73;3.40;;;;;;;9.23;100.00;100307.25;5337095;27;20501;-80
2022/09/26 05:21:58;;;;;;;6.47;3.78;;;;;;;9.32;100.00;100339.28;5337692;27;20046;-79
2022/09/26 05:27:20;;;;;;;12.65;4.32;;;;;;;9.33;100.00;100331.16;5340592;27;20045;-80
2022/09/26 05:29:55;;;;;;;10.10;4.38;;;;;;;9.18;100.00;100300.69;5344203;27;20130;-80
2022/09/26 05:32:27;;;;;;;9.38;4.18;;;;;;;9.08;100.00;100287.41;5326761;27;20489;-80
2022/09/26 05:34:59;;;;;;;9.18;4.40;;;;;;;9.33;100.00;100317.03;5345708;27;20050;-80
2022/09/26 05:37:30;;;;;;;7.55;3.92;;;;;;;9.30;100.00;100314.66;5344562;27;20102;-80
2022/09/26 05:43:01;;;;;;;10.00;5.20;;;;;;;9.25;100.00;100307.94;5345239;27;20031;-80
2022/09/26 05:45:33;;;;;;;8.73;4.35;;;;;;;9.16;100.00;100305.31;5337803;27;20477;-80
2022/09/26 05:48:05;;;;;;;10.98;4.72;;;;;;;9.27;100.00;100321.94;5341086;27;20066;-80
2022/09/26 05:50:36;;;;;;;12.93;5.30;;;;;;;9.44;100.00;100304.34;5343026;27;20027;-80
2022/09/26 05:53:07;;;;;;;7.90;4.53;;;;;;;9.65;100.00;100311.25;5342516;27;20104;-81
2022/09/26 05:55:39;;;;;;;7.55;4.50;;;;;;;9.52;100.00;100313.41;5327463;27;20461;-80
2022/09/26 05:58:12;;;;;;;10.90;4.82;;;;;;;9.35;100.00;100297.25;5343693;27;20024;-80
2022/09/26 06:00:48;;;;;;;10.80;4.45;;;;;;;9.49;100.00;100298.59;5340462;27;20050;-81
2022/09/26 06:03:19;;;;;;;11.20;5.63;;;;;;;9.32;100.00;100278.91;5343929;27;20487;-80
2022/09/26 06:05:51;;;;;;;8.65;4.32;;;;;;;9.51;100.00;100290.44;5343845;27;20040;-81
2022/09/26 06:08:22;;;;;;;11.52;5.20;;;;;;;9.46;100.00;100297.03;5341357;27;20024;-81
2022/09/26 06:11:02;;;;;;;10.90;5.10;;;;;;;9.53;100.00;100285.81;5345273;27;20027;-81
2022/09/26 06:13:35;;;;;;;8.95;4.57;;;;;;;9.62;100.00;100271.59;5342831;27;20121;-80
2022/09/26 06:16:10;;;;;;;10.13;5.03;;;;;;;9.46;100.00;100264.25;5347125;27;20496;-81
2022/09/26 06:18:42;;;;;;;11.13;4.97;;;;;;;9.42;100.00;100249.59;5349524;27;20106;-81
2022/09/26 06:21:16;;;;;;;6.05;4.40;;;;;;;9.51;100.00;100251.34;5348971;27;20160;-81
2022/09/26 06:23:48;;;;;;;12.10;4.82;;;;;;;9.54;100.00;100240.41;5347309;27;20031;-81
2022/09/26 06:26:22;;;;;;;13.00;4.43;;;;;;;9.53;100.00;100228.06;5329429;27;20027;-80
2022/09/26 06:28:56;;;;;;;6.80;3.20;;;;;;;9.54;100.00;100218.28;5340964;27;20036;-80
2022/09/26 06:31:28;;;;;;;6.32;4.18;;;;;;;9.55;100.00;100203.97;5339653;27;20038;-81
2022/09/26 06:34:00;;;;;;;8.27;3.85;;;;;;;9.49;100.00;100192.09;5342489;27;20028;-80
2022/09/26 06:36:32;;;;;;;9.63;3.85;;;;;;;9.63;100.00;100193.41;5342429;27;20036;-80
2022/09/26 06:39:04;;;;;;;10.10;3.20;;;;;;;9.64;100.00;100187.06;5342391;27;20031;-80
2022/09/26 06:41:35;;;;;;;7.30;3.47;;;;;;;9.77;100.00;100190.19;5341019;27;20485;-81
2022/09/26 06:44:07;;;;;;;7.93;3.53;;;;;;;9.70;100.00;100170.50;5341323;27;20030;-81
2022/09/26 06:46:38;;;;;;;8.98;3.53;;;;;;;9.79;100.00;100169.56;5342689;27;20086;-80
2022/09/26 06:49:09;;;;;;;8.05;3.30;;;;;;;9.85;100.00;100176.09;5324181;27;20069;-81
2022/09/26 06:51:41;;;;;;;9.32;2.95;;;;;;;9.81;100.00;100166.75;5344549;27;20544;-81
2022/09/26 06:54:12;;;;;;;6.70;3.05;;;;;;;9.89;100.00;100149.97;5343036;27;20031;-80
2022/09/26 06:56:44;;;;;;;5.40;3.03;;;;;;;10.01;100.00;100160.25;5343790;27;20085;-81
2022/09/26 06:59:18;;;;;;;7.53;3.33;;;;;;;10.08;100.00;100146.28;5341931;27;20070;-80
2022/09/26 07:01:50;;;;;;;6.45;2.83;;;;;;;10.12;100.00;100153.84;5342210;27;20058;-80
2022/09/26 07:04:26;;;;;;;3.78;2.45;;;;;;;10.14;100.00;100149.19;5321018;27;20481;-81
2022/09/26 07:07:00;;;;;;;5.30;2.40;;;;;;;10.22;100.00;100149.25;5318232;27;20016;-81
2022/09/26 07:09:32;;;;;;;5.35;2.70;;;;;;;10.31;100.00;100139.50;5315896;28;20834;-81
2022/09/26 07:12:05;;;;;;;6.32;3.08;;;;;;;10.40;100.00;100129.72;5318000;28;20037;-80
2022/09/26 07:14:37;;;;;;;6.38;2.83;;;;;;;10.36;100.00;100121.19;5318866;27;20089;-80
2022/09/26 07:17:14;;;;;;;4.72;2.28;;;;;;;10.33;100.00;100112.69;5322186;27;20020;-80
2022/09/26 07:19:51;;;;;;;4.38;2.35;;;;;;;10.30;100.00;100083.63;5317311;27;20032;-80
2022/09/26 07:22:22;;;;;;;;;;;;;;;10.36;100.00;100107.88;5317849;28;20028;-81
2022/09/26 07:24:54;;;;;;;5.28;2.67;;;;;;;10.37;100.00;100101.53;5318454;27;19938;-80
2022/09/26 07:27:25;;;;;;;8.80;2.50;;;;;;;10.32;100.00;100100.34;5317997;27;20024;-79
2022/09/26 07:29:57;;;;;;;5.93;2.42;;;;;;;10.42;100.00;100102.91;5316362;27;20056;-79
2022/09/26 07:32:30;;;;;;;3.75;2.55;;;;;;;10.42;100.00;100101.06;5312874;27;20393;-80
2022/09/26 07:35:02;;;;;;;5.28;2.13;;;;;;;10.50;100.00;100109.09;5317968;27;20055;-79
2022/09/26 07:37:33;;;;;;;5.93;2.70;;;;;;;10.45;100.00;100086.56;5321224;27;20485;-79
2022/09/26 07:40:05;;;;;;;4.10;2.40;;;;;;;10.59;100.00;100094.81;5316279;27;20085;-80
2022/09/26 07:42:37;;;;;;;7.28;2.83;;;;;;;10.69;100.00;100101.81;5318548;28;20024;-80
2022/09/26 07:45:09;;;;;;;5.53;2.65;;;;;;;10.71;100.00;100094.50;5319741;27;20177;-80
2022/09/26 07:50:31;;;;;;;3.75;2.30;;;;;;;10.76;100.00;100071.69;5316449;28;20036;-80
2022/09/26 07:53:02;;;;;;;7.22;2.40;;;;;;;10.79;100.00;100086.53;5316318;27;20724;-80
2022/09/26 07:56:04;;;;;;;4.43;2.40;;;;;;;10.83;100.00;100085.19;5312846;28;20351;-80
2022/09/26 07:58:26;;;;;;;3.88;2.13;;;;;;;10.88;100.00;100087.38;5312418;27;20037;-80
2022/09/26 08:00:58;;;;;;;6.55;2.30;;;;;;;10.90;100.00;100077.38;5320254;27;20043;-80
2022/09/26 08:03:29;;;;;;;5.70;2.22;;;;;;;11.03;100.00;100074.25;5331426;27;20032;-80
2022/09/26 08:06:01;;;;;;;5.72;2.30;;;;;;;11.09;100.00;100069.06;5338186;27;20047;-80
2022/09/26 08:08:34;;;;;;;6.75;2.05;;;;;;;11.07;100.00;100070.25;5323801;27;20084;-79
2022/09/26 08:11:15;;;;;;;3.97;2.42;;;;;;;10.98;100.00;100035.53;5343292;27;20057;-79
2022/09/26 08:13:48;;;;;;;6.53;2.38;;;;;;;11.10;100.00;100053.91;5338971;27;20034;-79
2022/09/26 08:16:21;;;;;;;5.70;2.28;;;;;;;11.23;100.00;100070.25;5340126;27;20115;-79
2022/09/26 08:18:53;;;;;;;7.80;2.22;;;;;;;11.18;100.00;100039.72;5338665;27;20473;-79
2022/09/26 08:21:24;;;;;;;6.90;3.05;;;;;;;11.19;100.00;100046.75;5341256;27;20032;-81
2022/09/26 08:23:56;;;;;;;3.70;2.03;;;;;;;11.14;100.00;100045.41;5342098;27;20031;-80
2022/09/26 08:26:27;;;;;;;6.65;2.80;;;;;;;11.23;100.00;100059.59;5342007;27;20031;-80
2022/09/26 08:29:00;;;;;;;5.63;2.00;;;;;;;11.15;100.00;100065.75;5341551;27;20110;-81
2022/09/26 08:31:32;;;;;;;4.25;1.95;;;;;;;11.09;100.00;100037.06;5342592;27;20101;-81
2022/09/26 08:34:04;;;;;;;9.48;2.33;;;;;;;11.18;100.00;100053.91;5342407;27;20114;-80
2022/09/26 08:36:36;;;;;;;4.40;2.20;;;;;;;11.19;100.00;100044.91;5344549;27;20024;-80
2022/09/26 08:39:09;;;;;;;4.45;2.47;;;;;;;11.15;100.00;100035.56;5345275;27;20020;-80
2022/09/26 08:41:40;;;;;;;6.45;2.20;;;;;;;11.33;100.00;100046.09;5344621;27;20032;-81
2022/09/26 08:44:29;;;;;;;5.20;2.10;;;;;;;11.40;100.00;100024.91;5324059;27;20389;-81
2022/09/26 08:47:05;;;;;;;6.50;2.75;;;;;;;11.46;100.00;100037.56;5342201;27;20035;-80
2022/09/26 08:50:22;;;;;;;6.10;2.20;;;;;;;11.61;100.00;100041.22;5340266;27;20028;-80
2022/09/26 08:53:04;;;;;;;5.82;1.90;;;;;;;11.64;100.00;100038.22;5303559;27;20053;-80
2022/09/26 08:55:41;;;;;;;3.83;1.95;;;;;;;11.68;100.00;100038.72;5341437;27;20416;-80
2022/09/26 08:58:21;;;;;;;5.40;2.10;;;;;;;11.75;100.00;100033.53;5319557;27;20442;-80
2022/09/26 09:01:04;;;;;;;4.53;2.20;;;;;;;11.68;100.00;100026.19;5323547;27;20497;-80
2022/09/26 09:03:47;;;;;;;9.27;2.20;;;;;;;11.66;100.00;100014.84;5341768;27;20051;-80
2022/09/26 09:06:18;;;;;;;6.28;2.35;;;;;;;11.73;100.00;100026.53;5345033;27;20088;-80
2022/09/26 09:08:54;;;;;;;5.28;1.98;;;;;;;11.63;100.00;100017.03;5345498;27;20027;-80
2022/09/26 09:11:51;;;;;;;8.55;2.95;;;;;;;11.71;100.00;100025.00;5345274;27;20027;-80
2022/09/26 09:14:25;;;;;;;8.25;2.35;;;;;;;11.66;100.00;100020.19;5342596;27;20034;-80
2022/09/26 09:17:18;;;;;;;7.25;2.60;;;;;;;11.57;100.00;100023.03;5345418;27;20112;-81
2022/09/26 09:19:58;;;;;;;7.32;2.92;;;;;;;11.41;100.00;99994.50;5343290;27;20393;-81
2022/09/26 09:22:45;;;;;;;9.93;2.80;;;;;;;11.44;100.00;100011.03;5344912;27;20035;-81
2022/09/26 09:25:22;;;;;;;9.27;3.40;;;;;;;11.24;100.00;99993.72;5325621;27;20023;-81
2022/09/26 09:28:02;;;;;;;8.95;2.97;;;;;;;11.19;100.00;100001.38;5344960;27;20114;-79
2022/09/26 09:31:00;;;;;;;10.57;3.30;;;;;;;11.08;100.00;99987.38;5344886;27;20501;-80
2022/09/26 09:33:44;;;;;;;;;;;;;;;10.91;100.00;99993.69;5342188;27;20055;-80
2022/09/26 09:36:24;;;;;;;10.70;4.55;;;;;;;10.92;100.00;99974.84;5345268;27;19990;-80
2022/09/26 09:39:02;;;;;;;12.05;4.15;;;;;;;10.97;100.00;99982.34;5340905;27;20102;-80
2022/09/26 09:41:47;;;;;;;11.35;4.22;;;;;;;11.00;100.00;99983.84;5320003;27;20028;-80
2022/09/26 09:44:27;;;;;;;7.45;3.65;;;;;;;10.96;100.00;99988.69;5339839;27;20081;-80
2022/09/26 09:46:59;;;;;;;8.93;4.30;;;;;;;10.87;100.00;99955.84;5341405;27;20023;-80
2022/09/26 09:49:31;;;;;;;10.20;4.30;;;;;;;10.92;100.00;99949.97;5341847;27;20055;-81
2022/09/26 09:52:32;;;;;;;8.70;4.35;;;;;;;10.95;100.00;99968.34;5342049;27;20028;-80
2022/09/26 09:55:41;;;;;;;6.70;4.00;;;;;;;10.93;100.00;99957.00;5338999;27;20028;-80
2022/09/26 09:58:49;;;;;;;9.05;4.50;;;;;;;10.92;100.00;99950.84;5334934;27;20044;-80
2022/09/26 10:01:32;;;;;;;8.05;4.80;;;;;;;10.89;100.00;99942.34;5330196;27;20504;-80
2022/09/26 10:04:19;;;;;;;8.77;4.13;;;;;;;11.04;100.00;99934.47;5338792;27;20089;-80
2022/09/26 10:06:51;;;;;;;8.43;4.50;;;;;;;11.04;100.00;99919.28;5339074;27;20030;-80
2022/09/26 10:09:28;;;;;;;9.75;4.57;;;;;;;11.29;100.00;99930.78;5339538;27;20020;-80
2022/09/26 10:11:59;;;;;;;;;;;;;;;11.27;100.00;99938.16;5338612;27;20551;-80
2022/09/26 10:14:41;;;;;;;12.65;4.63;;;;;;;11.32;100.00;99913.59;5321021;27;19915;-80
2022/09/26 10:17:19;;;;;;;10.10;4.50;;;;;;;11.30;100.00;99923.59;5336797;27;20337;-80
2022/09/26 10:19:50;;;;;;;12.18;5.32;;;;;;;11.26;100.00;99901.75;5334619;27;20567;-81
2022/09/26 10:22:31;;;;;;;7.55;4.40;;;;;;;11.21;100.00;99898.75;5344821;27;20035;-79
2022/09/26 10:25:25;;;;;;;9.80;4.45;;;;;;;11.16;100.00;99887.75;5342733;27;20453;-80
2022/09/26 10:27:58;;;;;;;9.10;4.68;;;;;;;11.23;100.00;99909.28;5342961;27;20118;-80
2022/09/26 10:30:32;;;;;;;10.45;4.88;;;;;;;11.16;100.00;99896.59;5328602;27;20022;-80
2022/09/26 10:33:04;;;;;;;10.82;4.85;;;;;;;11.08;100.00;99904.63;5344640;27;20100;-81
2022/09/26 10:35:45;;;;;;;9.07;4.55;;;;;;;11.03;100.00;99901.63;5342160;27;20020;-81
2022/09/26 10:38:20;;;;;;;9.63;5.28;;;;;;;11.05;100.00;99893.47;5340190;27;20023;-81
2022/09/26 10:40:54;;;;;;;8.55;4.93;;;;;;;11.04;100.00;99910.47;5345431;27;20431;-81
2022/09/26 10:43:31;;;;;;;10.00;5.18;;;;;;;11.02;100.00;99881.28;5343568;27;20032;-81
2022/09/26 10:46:13;;;;;;;8.95;5.10;;;;;;;10.97;100.00;99881.78;5342488;27;20020;-81
2022/09/26 10:48:56;;;;;;;8.15;4.75;;;;;;;11.06;100.00;99884.44;5326754;27;20032;-81
2022/09/26 10:51:43;;;;;;;13.02;5.32;;;;;;;10.97;100.00;99870.28;5339799;27;20031;-81
2022/09/26 10:54:21;;;;;;;8.93;5.22;;;;;;;10.88;100.00;99863.28;5343643;27;20019;-81
2022/09/26 10:56:57;;;;;;;12.27;5.20;;;;;;;10.98;100.00;99888.78;5343372;27;20020;-81
2022/09/26 10:59:34;;;;;;;8.45;5.05;;;;;;;10.91;100.00;99858.44;5342442;27;20066;-81
2022/09/26 11:02:17;;;;;;;8.55;5.15;;;;;;;11.02;100.00;99869.78;5342209;27;20047;-81
2022/09/26 11:07:51;;;;;;;12.90;5.35;;;;;;;10.94;100.00;99863.44;5342785;27;20032;-81
2022/09/26 11:10:28;;;;;;;14.32;6.32;;;;;;;11.01;100.00;99874.28;5341623;27;20483;-81
2022/09/26 11:13:02;;;;;;;11.18;6.07;;;;;;;11.05;100.00;99867.59;5341263;27;20031;-80
2022/09/26 11:15:38;;;;;;;9.50;6.18;;;;;;;11.02;100.00;99846.59;5337521;27;20063;-81
2022/09/26 11:18:24;;;;;;;11.07;5.90;;;;;;;11.13;100.00;99851.59;5342916;27;20038;-81
2022/09/26 11:21:05;;;;;;;9.90;5.93;;;;;;;10.94;100.00;99833.28;5328568;27;20040;-81
2022/09/26 11:23:51;;;;;;;10.40;5.68;;;;;;;11.00;100.00;99851.25;5346658;27;20051;-81
2022/09/26 11:26:36;;;;;;;9.40;5.50;;;;;;;10.92;100.00;99849.44;5316376;27;20032;-81
2022/09/26 11:29:18;;;;;;;10.07;5.45;;;;;;;10.96;100.00;99844.59;5346799;27;20032;-81
2022/09/26 11:31:50;;;;;;;9.52;6.07;;;;;;;10.96;100.00;99845.44;5326630;27;20034;-81
2022/09/26 11:34:27;;;;;;;10.82;6.20;;;;;;;10.94;100.00;99841.28;5347951;27;20377;-81
2022/09/26 11:37:36;;;;;;;9.95;6.03;;;;;;;10.94;100.00;99851.97;5346499;27;20035;-82
2022/09/26 11:40:38;;;;;;;10.18;6.55;;;;;;;10.91;100.00;99847.78;5327532;27;20051;-82
2022/09/26 11:43:31;;;;;;;12.05;5.70;;;;;;;10.89;100.00;99841.78;5347326;27;20031;-82
2022/09/26 11:46:16;;;;;;;13.38;6.80;;;;;;;10.84;100.00;99820.09;5347134;27;20023;-82
2022/09/26 11:49:02;;;;;;;11.73;6.88;;;;;;;10.97;100.00;99832.91;5327419;27;20108;-81
2022/09/26 11:51:50;;;;;;;8.65;5.53;;;;;;;10.98;100.00;99830.09;5345810;27;20504;-81
2022/09/26 11:54:37;;;;;;;;;;;;;;;11.00;100.00;99837.09;5319950;27;20502;-82
2022/09/26 11:57:33;;;;;;;8.60;5.93;;;;;;;11.04;100.00;99817.06;5345922;27;20059;-81
2022/09/26 12:00:25;;;;;;;10.27;5.32;;;;;;;11.08;100.00;99837.06;5345517;27;20039;-81
2022/09/26 12:03:14;;;;;;;5.28;4.78;;;;;;;11.03;100.00;99826.91;5344755;27;20036;-80
2022/09/26 12:05:52;;;;;;;7.47;5.00;;;;;;;11.04;100.00;99827.75;5328021;27;20132;-81
2022/09/26 12:08:33;;;;;;;9.27;5.03;;;;;;;11.02;100.00;99822.56;5345534;27;20036;-81
2022/09/26 12:11:37;;;;;;;8.40;5.00;;;;;;;11.04;100.00;99823.22;5344823;27;20038;-80
2022/09/26 12:14:42;;;;;;;9.07;5.10;;;;;;;11.08;100.00;99826.38;5309282;27;20516;-81
2022/09/26 12:17:34;;;;;;;8.55;4.70;;;;;;;11.02;100.00;99803.06;5342764;27;20487;-81
2022/09/26 12:20:25;;;;;;;8.38;5.30;;;;;;;11.08;100.00;99815.72;5345893;27;20097;-81